首页
METAR-TAF:

METAR-TAF

机场 :

塔那那利佛/伊瓦图国际机场

塔那那利佛, 马达加斯加

纬度: 18-48S, 经度: 047-29E, 海拔: 1279米

当前天气观测

该预报发布于19分钟前的20:00 UTC
风速8节,风向南转南东,在东转东南之间变化
温度 18°C
湿度 77%
气压 1021 hPa
能见度10公里或以上
少量云层高于1700英尺
多云层高于2000英尺

METAR: FMMI 142000Z 15008KT 110V180 9999 FEW017 BKN020 18/14 Q1021 NOSIG

时间: 23:19 (20:19 UTC)

预报

该预报发布于3小时和19分钟前的17:00 UTC
预报有效从14日的 18点(UTC)到 15日的 24点(UTC)
风速12节,风向东南
能见度10公里或以上
散云层高于1700英尺
多云层高于2000英尺

TAF: FMMI 141700Z 1418/1524 13012KT 9999 SCT017 BKN020

超过4000个机场的气象观测和天气预报(METAR&TAF报告)。

可查询的气象台以黄色和红色小点在地图上表示。

将鼠标移到小点上方,可查看气象台名称。

然后点击查看天气观测和预报。

如需切换地图:点击带黑十字的绿色按钮放大地图;点击带横线的绿色按钮缩小地图;或者点击绿色箭头查看邻近地区的地图。


METAR-TAF: